createdAt,value
2023-03-22T00:01:17.305Z,12.85
2023-03-22T00:03:45.007Z,14.57
2023-03-22T00:06:12.608Z,13.62
2023-03-22T00:08:40.324Z,13.80
2023-03-22T00:11:07.963Z,13.45
2023-03-22T00:13:35.799Z,13.68
2023-03-22T00:16:04.453Z,15.20
2023-03-22T00:18:32.048Z,13.98
2023-03-22T00:20:59.456Z,14.23
2023-03-22T00:23:27.570Z,13.27
2023-03-22T00:25:55.260Z,12.73
2023-03-22T00:28:22.645Z,13.02
2023-03-22T00:30:58.232Z,13.75
2023-03-22T00:33:28.470Z,13.23
2023-03-22T00:36:06.765Z,15.15
2023-03-22T00:38:44.936Z,13.98
2023-03-22T00:41:14.697Z,14.27
2023-03-22T00:43:45.652Z,14.52
2023-03-22T00:46:13.322Z,13.43
2023-03-22T00:48:40.778Z,14.85
2023-03-22T00:51:08.685Z,13.85
2023-03-22T00:53:36.984Z,13.52
2023-03-22T00:56:05.577Z,13.52
2023-03-22T00:58:35.440Z,13.80
2023-03-22T01:01:02.863Z,13.23
2023-03-22T01:03:30.319Z,16.87
2023-03-22T01:05:58.043Z,13.90
2023-03-22T01:08:25.462Z,13.50
2023-03-22T01:10:53.667Z,14.87
2023-03-22T01:13:21.315Z,15.30
2023-03-22T01:15:50.897Z,15.23
2023-03-22T01:18:18.696Z,13.65
2023-03-22T01:20:46.336Z,14.25
2023-03-22T01:23:13.789Z,14.40
2023-03-22T01:25:41.223Z,17.17
2023-03-22T01:28:08.986Z,16.00
2023-03-22T01:30:36.969Z,15.13
2023-03-22T01:33:05.683Z,15.90
2023-03-22T01:35:34.387Z,15.95
2023-03-22T01:38:01.812Z,18.05
2023-03-22T01:40:29.260Z,16.33
2023-03-22T01:42:57.370Z,17.85
2023-03-22T01:45:36.415Z,17.73
2023-03-22T01:48:34.207Z,15.15
2023-03-22T01:51:07.806Z,16.40
2023-03-22T01:53:39.351Z,14.60
2023-03-22T01:56:07.737Z,18.58
2023-03-22T01:58:36.619Z,14.70
2023-03-22T02:01:05.451Z,15.00
2023-03-22T02:04:07.213Z,14.38
2023-03-22T02:06:38.106Z,15.50
2023-03-22T02:09:08.188Z,17.40
2023-03-22T02:11:42.855Z,16.20
2023-03-22T02:14:17.215Z,13.50
2023-03-22T02:17:04.491Z,14.35
2023-03-22T02:19:52.020Z,13.43
2023-03-22T02:22:53.282Z,16.17
2023-03-22T02:26:00.017Z,13.27
2023-03-22T02:29:08.184Z,17.15
2023-03-22T02:31:54.189Z,15.88
2023-03-22T02:34:46.200Z,16.33
2023-03-22T02:37:33.807Z,15.05
2023-03-22T02:40:12.876Z,15.45
2023-03-22T02:42:46.290Z,14.95
2023-03-22T02:45:15.496Z,14.98
2023-03-22T02:47:50.261Z,15.27
2023-03-22T02:50:28.720Z,14.32
2023-03-22T02:53:24.688Z,15.35
2023-03-22T02:56:02.754Z,15.23
2023-03-22T02:58:38.134Z,16.25
2023-03-22T03:01:07.643Z,14.68
2023-03-22T03:03:37.659Z,16.67
2023-03-22T03:06:13.612Z,15.10
2023-03-22T03:08:41.346Z,17.35
2023-03-22T03:11:09.366Z,13.55
2023-03-22T03:13:37.123Z,14.73
2023-03-22T03:16:07.848Z,14.25
2023-03-22T03:18:48.432Z,15.40
2023-03-22T03:22:14.602Z,16.67
2023-03-22T03:25:22.363Z,13.75
2023-03-22T03:27:52.268Z,14.87
2023-03-22T03:30:21.878Z,15.63
2023-03-22T03:32:54.650Z,15.10
2023-03-22T03:35:37.661Z,15.40
2023-03-22T03:38:18.680Z,15.65
2023-03-22T03:40:51.484Z,14.52
2023-03-22T03:43:18.882Z,18.25
2023-03-22T03:45:46.781Z,14.20
2023-03-22T03:48:19.277Z,14.73
2023-03-22T03:50:47.733Z,16.77
2023-03-22T03:53:15.066Z,15.43
2023-03-22T03:55:42.460Z,16.77
2023-03-22T03:58:10.222Z,17.15
2023-03-22T04:00:37.881Z,15.63
2023-03-22T04:03:07.748Z,17.00
2023-03-22T04:05:36.257Z,15.60
2023-03-22T04:08:03.694Z,16.58
2023-03-22T04:10:32.977Z,17.60
2023-03-22T04:13:00.413Z,19.23
2023-03-22T04:15:27.970Z,14.43
2023-03-22T04:17:56.109Z,15.32
2023-03-22T04:20:26.169Z,15.23
2023-03-22T04:22:53.577Z,16.02
2023-03-22T04:25:22.862Z,14.23
2023-03-22T04:27:51.636Z,13.93
2023-03-22T04:30:20.158Z,13.52
2023-03-22T04:32:53.134Z,16.10
2023-03-22T04:35:21.362Z,15.43
2023-03-22T04:37:49.386Z,15.07
2023-03-22T04:40:20.729Z,14.25
2023-03-22T04:42:48.260Z,14.93
2023-03-22T04:45:16.287Z,17.85
2023-03-22T04:47:44.338Z,17.90
2023-03-22T04:50:11.776Z,17.40
2023-03-22T04:52:40.584Z,14.27
2023-03-22T04:55:08.336Z,15.52
2023-03-22T04:57:36.208Z,16.25
2023-03-22T05:00:08.360Z,16.87
2023-03-22T05:02:41.170Z,14.63
2023-03-22T05:05:09.833Z,17.12
2023-03-22T05:07:39.230Z,15.95
2023-03-22T05:10:07.279Z,15.77
2023-03-22T05:12:35.120Z,14.73
2023-03-22T05:15:04.310Z,15.40
2023-03-22T05:17:33.132Z,19.08
2023-03-22T05:20:08.279Z,15.48
2023-03-22T05:22:40.619Z,18.10
2023-03-22T05:25:10.263Z,17.62
2023-03-22T05:27:39.002Z,16.50
2023-03-22T05:30:07.501Z,19.05
2023-03-22T05:32:37.598Z,17.52
2023-03-22T05:35:05.403Z,16.75
2023-03-22T05:37:33.306Z,15.63
2023-03-22T05:40:01.330Z,18.08
2023-03-22T05:42:30.684Z,20.27
2023-03-22T05:44:58.132Z,15.48
2023-03-22T05:47:25.901Z,18.80
2023-03-22T05:49:53.738Z,18.98
2023-03-22T05:52:23.126Z,17.23
2023-03-22T05:54:51.646Z,17.42
2023-03-22T05:57:19.064Z,19.00
2023-03-22T05:59:46.540Z,18.23
2023-03-22T06:02:17.156Z,20.37
2023-03-22T06:04:44.830Z,17.60
2023-03-22T06:07:12.887Z,19.15
2023-03-22T06:09:40.589Z,15.98
2023-03-22T06:12:08.836Z,20.25
2023-03-22T06:14:36.547Z,24.42
2023-03-22T06:17:05.218Z,31.55
2023-03-22T06:19:32.952Z,32.60
2023-03-22T06:22:01.808Z,33.28
2023-03-22T06:24:29.423Z,24.50
2023-03-22T06:26:57.178Z,26.60
2023-03-22T06:29:24.792Z,21.35
2023-03-22T06:31:52.724Z,25.58
2023-03-22T06:34:20.602Z,20.55
2023-03-22T06:36:48.543Z,18.05
2023-03-22T06:39:16.174Z,17.77
2023-03-22T06:41:44.018Z,22.60
2023-03-22T06:44:11.382Z,20.08
2023-03-22T06:46:39.535Z,18.42
2023-03-22T06:49:08.030Z,19.17
2023-03-22T06:51:35.621Z,20.92
2023-03-22T06:54:03.572Z,18.67
2023-03-22T06:56:31.385Z,17.73
2023-03-22T06:58:58.820Z,18.67
2023-03-22T07:01:26.574Z,17.95
2023-03-22T07:03:54.812Z,14.95
2023-03-22T07:06:22.334Z,18.90
2023-03-22T07:08:51.945Z,17.05
2023-03-22T07:11:19.897Z,16.58
2023-03-22T07:13:47.736Z,19.60
2023-03-22T07:16:16.349Z,16.05
2023-03-22T07:18:45.544Z,14.32
2023-03-22T07:21:12.899Z,16.40
2023-03-22T07:23:40.504Z,12.73
2023-03-22T07:26:09.135Z,13.13
2023-03-22T07:28:37.385Z,13.73
2023-03-22T07:31:07.185Z,12.98
2023-03-22T07:33:36.293Z,12.68
2023-03-22T07:36:04.725Z,13.95
2023-03-22T07:38:32.299Z,12.45
2023-03-22T07:41:00.269Z,15.43
2023-03-22T07:43:28.366Z,12.80
2023-03-22T07:45:56.963Z,11.85
2023-03-22T07:48:28.925Z,14.32
2023-03-22T07:50:56.707Z,13.13
2023-03-22T07:53:24.548Z,15.05
2023-03-22T07:55:52.544Z,13.23
2023-03-22T07:58:20.513Z,14.27
2023-03-22T08:00:49.754Z,14.40
2023-03-22T08:03:20.084Z,15.10
2023-03-22T08:05:48.795Z,15.52
2023-03-22T08:08:16.533Z,14.73
2023-03-22T08:10:49.277Z,14.02
2023-03-22T08:13:16.931Z,15.93
2023-03-22T08:15:44.428Z,14.87
2023-03-22T08:18:13.142Z,16.23
2023-03-22T08:20:41.347Z,15.27
2023-03-22T08:23:14.450Z,16.98
2023-03-22T08:25:43.593Z,16.75
2023-03-22T08:28:11.920Z,15.55
2023-03-22T08:30:39.772Z,14.68
2023-03-22T08:33:07.618Z,15.27
2023-03-22T08:35:35.071Z,14.45
2023-03-22T08:38:02.614Z,13.98
2023-03-22T08:40:31.474Z,13.02
2023-03-22T08:42:59.898Z,13.82
2023-03-22T08:45:28.965Z,14.48
2023-03-22T08:47:57.844Z,14.07
2023-03-22T08:50:25.731Z,19.87
2023-03-22T08:52:53.887Z,16.50
2023-03-22T08:55:22.175Z,14.73
2023-03-22T08:57:51.794Z,14.57
2023-03-22T09:00:19.743Z,16.00
2023-03-22T09:02:48.194Z,14.32
2023-03-22T09:05:15.716Z,15.55
2023-03-22T09:07:43.157Z,14.85
2023-03-22T09:10:11.329Z,15.57
2023-03-22T09:12:39.413Z,17.58
2023-03-22T09:15:07.590Z,18.50
2023-03-22T09:17:36.440Z,16.42
2023-03-22T09:20:12.509Z,21.70
2023-03-22T09:22:41.310Z,18.55
2023-03-22T09:25:12.077Z,17.45
2023-03-22T09:27:42.100Z,16.95
2023-03-22T09:30:11.257Z,18.37
2023-03-22T09:32:39.562Z,18.45
2023-03-22T09:35:07.351Z,21.15
2023-03-22T09:37:35.690Z,16.65
2023-03-22T09:40:05.679Z,23.50
2023-03-22T09:42:39.631Z,17.33
2023-03-22T09:45:12.781Z,20.27
2023-03-22T09:47:44.986Z,17.37
2023-03-22T09:50:32.052Z,20.92
2023-03-22T09:53:00.229Z,17.55
2023-03-22T09:55:37.823Z,22.02
2023-03-22T09:58:11.447Z,19.45
2023-03-22T10:00:44.169Z,22.33
2023-03-22T10:03:36.616Z,17.95
2023-03-22T10:06:10.267Z,19.80
2023-03-22T10:09:05.333Z,20.30
2023-03-22T10:11:46.121Z,18.23
2023-03-22T10:14:36.210Z,18.67
2023-03-22T10:17:06.245Z,19.05
2023-03-22T10:19:35.658Z,17.92
2023-03-22T10:22:03.964Z,18.98
2023-03-22T10:24:35.846Z,18.52
2023-03-22T10:27:03.491Z,21.02
2023-03-22T10:29:41.482Z,22.87
2023-03-22T10:32:17.051Z,22.50
2023-03-22T10:34:44.544Z,18.77
2023-03-22T10:37:17.402Z,19.25
2023-03-22T10:39:46.460Z,18.90
2023-03-22T10:42:16.812Z,18.73
2023-03-22T10:44:51.985Z,18.08
2023-03-22T10:47:24.796Z,17.50
2023-03-22T10:49:54.772Z,19.42
2023-03-22T10:52:34.837Z,22.13
2023-03-22T10:55:04.505Z,20.02
2023-03-22T10:57:32.341Z,26.70
2023-03-22T10:59:59.756Z,25.00
2023-03-22T11:02:29.216Z,21.20
2023-03-22T11:04:59.044Z,18.83
2023-03-22T11:07:43.440Z,19.00
2023-03-22T11:10:10.915Z,21.02
2023-03-22T11:12:44.103Z,23.45
2023-03-22T11:15:24.008Z,19.23
2023-03-22T11:17:51.401Z,21.40
2023-03-22T11:20:19.640Z,17.80
2023-03-22T11:22:48.043Z,20.95
2023-03-22T11:25:22.376Z,19.23
2023-03-22T11:28:17.598Z,19.95
2023-03-22T11:30:58.467Z,22.62
2023-03-22T11:33:26.154Z,20.20
2023-03-22T11:35:55.314Z,20.48
2023-03-22T11:38:29.862Z,19.42
2023-03-22T11:41:00.718Z,20.20
2023-03-22T11:43:33.016Z,19.30
2023-03-22T11:46:00.722Z,21.75
2023-03-22T11:48:29.597Z,20.37
2023-03-22T11:51:13.514Z,21.85
2023-03-22T11:53:46.470Z,21.50
2023-03-22T11:56:18.956Z,20.67
2023-03-22T11:59:11.595Z,22.80
2023-03-22T12:01:41.483Z,20.15
2023-03-22T12:04:13.804Z,24.05
2023-03-22T12:06:41.360Z,24.00
2023-03-22T12:09:19.260Z,22.83
2023-03-22T12:11:47.862Z,23.40
2023-03-22T12:14:22.505Z,21.70
2023-03-22T12:17:13.057Z,22.37
2023-03-22T12:19:52.331Z,22.52
2023-03-22T12:22:22.927Z,20.67
2023-03-22T12:24:50.526Z,21.12
2023-03-22T12:27:19.099Z,18.73
2023-03-22T12:30:04.269Z,21.58
2023-03-22T12:32:42.096Z,21.12
2023-03-22T12:35:17.656Z,25.77
2023-03-22T12:37:51.798Z,20.62
2023-03-22T12:40:22.986Z,19.20
2023-03-22T12:42:56.671Z,18.80
2023-03-22T12:45:27.392Z,17.75
2023-03-22T12:48:06.279Z,19.50
2023-03-22T12:50:36.483Z,15.93
2023-03-22T12:53:04.502Z,16.50
2023-03-22T12:55:35.897Z,17.33
2023-03-22T12:58:06.140Z,18.67
2023-03-22T13:00:40.954Z,18.55
2023-03-22T13:03:21.008Z,22.10
2023-03-22T13:05:50.245Z,20.30
2023-03-22T13:08:21.568Z,18.58
2023-03-22T13:10:58.020Z,18.77
2023-03-22T13:16:08.368Z,19.23
2023-03-22T13:18:35.694Z,17.60
2023-03-22T13:21:13.042Z,18.23
2023-03-22T13:24:05.308Z,19.17
2023-03-22T13:26:54.490Z,16.73
2023-03-22T13:29:26.628Z,18.37
2023-03-22T13:31:57.552Z,17.70
2023-03-22T13:34:48.402Z,18.65
2023-03-22T13:37:37.207Z,17.48
2023-03-22T13:40:14.977Z,25.00
2023-03-22T13:42:42.620Z,20.23
2023-03-22T13:45:31.467Z,16.80
2023-03-22T13:48:12.827Z,17.65
2023-03-22T13:50:40.602Z,16.05
2023-03-22T13:53:15.753Z,18.37
2023-03-22T13:55:46.154Z,18.40
2023-03-22T13:58:36.575Z,24.73
2023-03-22T14:01:14.951Z,22.15
2023-03-22T14:03:43.059Z,20.23
2023-03-22T14:06:20.968Z,18.20
2023-03-22T14:08:49.770Z,19.50
2023-03-22T14:11:21.212Z,17.58
2023-03-22T14:13:51.397Z,18.70
2023-03-22T14:16:34.112Z,19.37
2023-03-22T14:19:02.131Z,17.33
2023-03-22T14:21:39.247Z,17.62
